AirNav   Advertisement
 
 1039 users online  

5ND9 Deck Airport
Hillsboro, North Dakota, USA

GOING TO HILLSBORO?


FAA INFORMATION EFFECTIVE 20 JULY 2017

Location

FAA Identifier: 5ND9
Lat/Long: 47-29-04.9270N / 097-04-29.3130W
47-29.082117N / 097-04.488550W
47.4847019 / -97.0748092
(estimated)
Elevation: 916 ft. / 279 m (estimated)
Variation: 06E (1985)
From city: 4 miles N of HILLSBORO, ND
Time zone: UTC -5 (UTC -6 during Standard Time)
Zip code: 58223

Airport Operations

Airport use: Private use. Permission required prior to landing
Activation date: 04/1977
Control tower: no
ARTCC: MINNEAPOLIS CENTER
FSS: GRAND FORKS FLIGHT SERVICE STATION
Attendance: MON-SAT DAYLIGHT HOURS
Wind indicator: yes
Segmented circle: no

Nearby radio navigation aids

VOR radial/distance  VOR name  Freq  Var
GFKr162/28.6GRAND FORKS VOR/DME114.3009E

 
NDB name  Hdg/Dist  Freq  Var  ID
CROOKSTON218/28.340003ECKN -.-. -.- -.

Airport Services

Runway Information

Runway 16/34

Dimensions: 4400 x 60 ft. / 1341 x 18 m
Surface: turf
RUNWAY 16  RUNWAY 34
Traffic pattern: leftleft

Airport Ownership and Management from official FAA records

Ownership: Privately-owned
Owner: SKY TRACTOR SUPPLY CO LLC
16285 5TH STREET NE
HILLSBORO, ND 58045
Phone 701-636-5880
Manager: MICHAEL DECK
16285 5TH STREET NE
HILLSBORO, ND 58045
Phone 701-636-5880

Airport Operational Statistics

Aircraft based on the field: 6
Single engine airplanes: 6
    

Instrument Procedures

There are no published instrument procedures at 5ND9.

Some nearby airports with instrument procedures:

3H4 - Hillsboro Municipal Airport (8 nm S)
4V4 - Northwood Municipal Airport-Vince Field (25 nm NW)
KGFK - Grand Forks International Airport (28 nm N)
KCKN - Crookston Municipal Airport-Kirkwood Field (28 nm NE)
D00 - Norman County Ada/Twin Valley Airport (31 nm SE)
 
Loc | Ops | Rwys | IFR | FBO | Links
Com | Nav | Svcs | Stats | Notes


 
Area around 5ND9 (Deck Airport)
 
Road maps at: MapQuest Bing Google
 
Aerial photo
No photo
 
Sectional chart

 
Airport distance calculator
Flying to Deck Airport? Find the distance to fly.

From to 5ND9

Sunrise and sunset
Times for 26-Jul-2017
 Local
(UTC-5)
 Zulu
(UTC)
Morning civil twilight05:2310:23
Sunrise06:0011:00
Sunset21:1002:10
Evening civil twilight21:4702:47

Current date and time
Zulu (UTC)  26-Jul-2017 12:43:24
Local (UTC-5)  26-Jul-2017 07:43:24
 
METAR
KGFK 
28nm N 
261153Z 32006KT 10SM CLR 17/16 A3000 RMK AO2 SLP155 T01720156 10178 20156 51006
KCKN 
29nm NE 
261214Z AUTO 33004KT 10SM CLR 16/14 A3001 RMK AO2
KRDR 
32nm NW 
261156Z AUTO 33008KT 10SM CLR 17/15 A3001 RMK AO2 SLP164 T01730146 10173 20153 51008 $
KFAR 
35nm S 
261153Z 26005KT 10SM CLR 17/14 A3001 RMK AO2 SLP160 T01670144 10178 20150 51010
KS32 
42nm W 
261215Z AUTO 32007KT 10SM CLR 17/15 A3006 RMK AO2
KJKJ 
42nm SE 
261213Z AUTO 00000KT 10SM CLR 16/15 A3002 RMK AO2
K3N8 
48nm E 
261215Z AUTO 00000KT 10SM CLR 15/14 A3002 RMK AO2 T01500136
TAF
KGFK 
28nm N 
261126Z 2612/2712 32010KT P6SM SKC FM270300 34006KT P6SM FEW250
KRDR 
32nm NW 
261000Z 2610/2716 31009KT 9999 FEW120 QNH2996INS BECMG 2614/2615 34010G15KT 9999 FEW150 QNH2999INS BECMG 2701/2702 33006KT 9999 FEW040 BKN070 QNH3003INS TX26/2621Z TN16/2611Z
KFAR 
35nm S 
261126Z 2612/2712 VRB06KT P6SM SCT250 FM261600 34010KT P6SM FEW200 FM270500 34005KT P6SM FEW250
NOTAMs
Click for the latest NOTAMs
NOTAMs are issued by the DoD/FAA and will open in a separate window not controlled by AirNav.

 

 
 

Would you like to see your business listed on this page?

 If your business provides an interesting product or service to pilots, flight crews, aircraft, or users of the Deck Airport, you should consider listing it here.  To start the listing process, click on the button below
 
Add a business
 

Other Pages about Deck Airport

Update a link
 
Copyright © AirNav, LLC. All rights reserved. Privacy Policy  Contact